Time;durP1;ratioP1;P1;durP2;ratioP2;P2;SDS_P1;SDS_P2;PMS_P1;PMS_P2;Temp;Humidity;BMP_temperature;BMP_pressure;BME280_temperature;BME280_humidity;BME280_pressure;Samples;Min_cycle;Max_cycle;Signal;HPM_P1;HPM_P2
2022/12/13 00:00:07;;;;;;;16.10;7.27;;;-1.10;99.90;;;-3.66;95.71;99700.59;10551480;28;20087;-88
2022/12/13 00:05:11;;;;;;;13.20;6.17;;;-1.10;99.90;;;-3.77;95.43;99703.03;10571171;27;20089;-87
2022/12/13 00:10:15;;;;;;;15.43;6.80;;;-1.30;99.90;;;-3.87;95.87;99688.91;10591363;27;20059;-88
2022/12/13 00:15:18;;;;;;;13.97;6.40;;;-1.30;99.90;;;-3.92;96.20;99698.69;10607165;27;20055;-87
2022/12/13 00:20:21;;;;;;;17.20;7.70;;;-1.40;99.90;;;-3.97;96.54;99701.56;10589417;27;20143;-88
2022/12/13 00:25:24;;;;;;;17.17;7.03;;;-1.50;99.90;;;-4.06;96.39;99699.50;10618916;27;20608;-87
2022/12/13 00:30:30;;;;;;;12.20;6.00;;;-1.50;99.90;;;-4.08;96.91;99699.59;10576774;27;20486;-87
2022/12/13 00:35:40;;;;;;;12.73;6.60;;;-1.60;99.90;;;-4.08;96.80;99714.31;10607270;27;20101;-87
2022/12/13 00:40:43;;;;;;;12.93;6.53;;;-1.60;99.90;;;-4.13;96.93;99705.97;10593182;27;20063;-87
2022/12/13 00:45:46;;;;;;;13.23;6.23;;;-1.60;99.90;;;-4.18;96.69;99719.19;10605969;27;20070;-87
2022/12/13 00:50:49;;;;;;;14.67;6.27;;;-1.70;99.90;;;-4.25;97.10;99727.41;10563317;27;20077;-86
2022/12/13 00:55:53;;;;;;;14.37;7.30;;;-1.70;99.90;;;-4.26;97.24;99730.91;10586852;27;20087;-87
2022/12/13 01:01:06;;;;;;;13.97;7.27;;;-1.70;99.90;;;-4.31;97.60;99726.00;10581467;27;20067;-86
2022/12/13 01:06:20;;;;;;;17.10;7.20;;;-1.80;99.90;;;-4.32;97.55;99732.09;10600014;27;20063;-86
2022/12/13 01:11:24;;;;;;;20.10;8.37;;;-1.80;99.90;;;-4.29;97.71;99744.91;10584672;27;20064;-86
2022/12/13 01:16:27;;;;;;;16.00;7.20;;;-1.80;99.90;;;-4.34;97.71;99741.72;10606567;27;20114;-86
2022/12/13 01:21:30;;;;;;;17.10;7.60;;;-1.80;99.90;;;-4.33;98.04;99743.38;10586274;27;20063;-86
2022/12/13 01:26:33;;;;;;;19.03;6.90;;;-1.80;99.90;;;-4.37;97.87;99747.94;10598870;27;20058;-86
2022/12/13 01:31:40;;;;;;;18.47;7.83;;;-1.80;99.90;;;-4.37;98.40;99747.09;10564698;27;20067;-85
2022/12/13 01:36:45;;;;;;;18.30;7.77;;;-1.90;99.90;;;-4.42;98.55;99756.88;10576148;27;20067;-86
2022/12/13 01:41:58;;;;;;;17.37;7.97;;;-1.90;99.90;;;-4.41;98.80;99759.38;10597817;27;20090;-86
2022/12/13 01:47:01;;;;;;;16.67;7.63;;;-1.90;99.90;;;-4.40;99.27;99765.41;10584379;27;20060;-86
2022/12/13 01:52:07;;;;;;;16.57;7.63;;;-1.90;99.90;;;-4.42;99.36;99775.88;10613902;27;20063;-86
2022/12/13 01:57:19;;;;;;;16.73;7.90;;;-1.90;99.90;;;-4.40;99.61;99776.63;10588530;27;20066;-86
2022/12/13 02:02:22;;;;;;;15.67;7.90;;;-1.90;99.90;;;-4.33;100.00;99787.50;10586775;27;20117;-85
2022/12/13 02:07:31;;;;;;;19.70;7.77;;;-1.80;99.90;;;-4.23;100.00;99791.25;10622165;27;20091;-85
2022/12/13 02:12:37;;;;;;;19.13;8.90;;;-1.70;99.90;;;-4.17;100.00;99785.72;10586733;27;20056;-86
2022/12/13 02:18:09;;;;;;;20.10;8.90;;;-1.70;99.90;;;-4.07;100.00;99794.69;10596146;27;20063;-85
2022/12/13 02:23:42;;;;;;;16.27;7.47;;;-1.60;99.90;;;-4.03;100.00;99788.38;10609795;27;20070;-85
2022/12/13 02:29:09;;;;;;;14.50;6.97;;;-1.50;99.90;;;-4.00;100.00;99790.00;10586290;27;20147;-85
2022/12/13 02:34:23;;;;;;;16.10;6.73;;;-1.50;99.90;;;-4.00;100.00;99789.16;10555933;27;20113;-86
2022/12/13 02:39:41;;;;;;;13.23;6.67;;;-1.40;99.90;;;-4.03;100.00;99790.16;10629030;27;20499;-86
2022/12/13 02:45:04;;;;;;;15.33;6.80;;;-1.40;99.90;;;-4.10;100.00;99779.28;10599930;27;20095;-88
2022/12/13 02:50:10;;;;;;;14.93;6.97;;;-1.50;99.90;;;-4.15;100.00;99780.44;10616026;27;20132;-87
2022/12/13 02:55:15;;;;;;;19.50;7.97;;;-1.60;99.90;;;-4.21;100.00;99779.03;10572586;27;20061;-87
2022/12/13 03:00:35;;;;;;;19.90;8.57;;;-1.60;99.90;;;-4.20;100.00;99787.66;10555004;27;20058;-87
2022/12/13 03:11:18;;;;;;;16.40;7.73;;;-1.60;99.90;;;-4.13;100.00;99789.84;10596477;27;20143;-86
2022/12/13 03:16:36;;;;;;;15.87;7.70;;;-1.60;99.90;;;-4.10;100.00;99776.69;10562412;27;20060;-86
2022/12/13 03:21:47;;;;;;;17.40;7.67;;;-1.60;99.90;;;-4.11;100.00;99787.16;10609665;27;20125;-86
2022/12/13 03:26:51;;;;;;;16.93;7.90;;;-1.60;99.90;;;-4.16;99.81;99783.97;10594938;27;20314;-85
2022/12/13 03:31:54;;;;;;;17.23;6.77;;;-1.60;99.90;;;-4.29;99.95;99767.41;10572773;27;20093;-85
2022/12/13 03:36:57;;;;;;;16.07;7.53;;;-1.70;99.90;;;-4.36;99.68;99778.13;10607710;27;20059;-85
2022/12/13 03:42:02;;;;;;;18.87;7.93;;;-1.80;99.90;;;-4.50;99.95;99783.22;10622860;27;20457;-85
2022/12/13 03:47:05;;;;;;;17.30;8.00;;;-1.90;99.90;;;-4.58;100.00;99781.03;10583748;27;20055;-86
2022/12/13 03:52:08;;;;;;;15.20;6.93;;;-2.00;99.90;;;-4.68;99.96;99787.66;10591836;27;20145;-86
2022/12/13 03:57:14;;;;;;;17.87;7.37;;;-2.10;99.90;;;-4.75;100.00;99786.28;10589925;27;20056;-85
2022/12/13 04:02:17;;;;;;;21.53;8.07;;;-2.20;99.90;;;-4.81;100.00;99793.56;10553450;27;20563;-85
2022/12/13 04:07:33;;;;;;;20.33;7.50;;;-2.30;99.90;;;-4.89;100.00;99794.78;10583537;27;20055;-85
2022/12/13 04:18:02;;;;;;;16.23;7.37;;;-2.40;99.90;;;-5.00;100.00;99806.63;10631728;27;20056;-87
2022/12/13 04:23:05;;;;;;;16.67;6.93;;;-2.50;99.90;;;-5.11;100.00;99802.84;10579589;27;20071;-86
2022/12/13 04:28:12;;;;;;;14.67;7.27;;;-2.50;99.90;;;-5.18;100.00;99800.66;10572705;27;20055;-87
2022/12/13 04:33:24;;;;;;;14.40;7.07;;;-2.60;99.90;;;-5.23;100.00;99807.81;10599312;27;20066;-86
2022/12/13 04:38:27;;;;;;;16.47;7.37;;;-2.60;99.90;;;-5.27;100.00;99820.09;10625216;27;20059;-85
2022/12/13 04:43:31;;;;;;;15.67;7.17;;;-2.70;99.90;;;-5.34;100.00;99810.94;10580393;27;20089;-86
2022/12/13 04:48:34;;;;;;;16.37;7.10;;;-2.70;99.90;;;-5.39;100.00;99806.00;10631487;27;20055;-86
2022/12/13 04:53:37;;;;;;;18.57;7.27;;;-2.80;99.90;;;-5.44;100.00;99809.75;10594304;27;20435;-86
2022/12/13 04:58:40;;;;;;;18.03;8.67;;;-2.80;99.90;;;-5.53;100.00;99811.00;10590776;27;20477;-86
2022/12/13 05:03:43;;;;;;;17.37;7.73;;;-2.90;99.90;;;-5.63;100.00;99807.22;10565694;28;20058;-85
2022/12/13 05:08:46;;;;;;;13.77;6.47;;;-3.00;99.90;;;-5.71;100.00;99805.00;10625472;27;20384;-85
2022/12/13 05:13:49;;;;;;;15.50;6.80;;;-3.00;99.90;;;-5.76;100.00;99812.13;10604359;27;20066;-85
2022/12/13 05:18:52;;;;;;;15.87;6.70;;;-3.10;99.90;;;-5.84;100.00;99810.84;10563328;27;20067;-86
2022/12/13 05:23:55;;;;;;;15.57;6.93;;;-3.20;99.90;;;-5.89;100.00;99816.22;10579406;27;20056;-86
2022/12/13 05:28:58;;;;;;;16.13;6.90;;;-3.30;99.90;;;-5.95;100.00;99814.81;10615295;27;20109;-85
2022/12/13 05:34:01;;;;;;;17.97;6.80;;;-3.30;99.90;;;-5.97;100.00;99820.97;10593301;27;20067;-86
2022/12/13 05:39:04;;;;;;;17.43;7.10;;;-3.30;99.90;;;-6.02;100.00;99812.59;10566946;27;20056;-85
2022/12/13 05:44:27;;;;;;;16.73;7.63;;;-3.40;99.90;;;-6.10;100.00;99812.97;10594255;27;20063;-86
2022/12/13 05:49:31;;;;;;;21.70;8.07;;;-3.40;99.90;;;-6.19;100.00;99808.22;10567134;27;20087;-85
2022/12/13 05:54:34;;;;;;;20.37;7.57;;;-3.50;99.90;;;-6.30;100.00;99811.28;10593778;27;20183;-86
2022/12/13 05:59:37;;;;;;;20.03;7.13;;;-3.60;99.90;;;-6.35;100.00;99813.28;10580165;27;20106;-86
2022/12/13 06:04:40;;;;;;;23.57;9.30;;;-3.60;99.90;;;-6.37;100.00;99822.81;10599417;27;20059;-87
2022/12/13 06:09:43;;;;;;;22.27;8.33;;;-3.70;99.90;;;-6.42;100.00;99837.72;10602567;27;20058;-86
2022/12/13 06:14:45;;;;;;;27.10;9.63;;;-3.70;99.90;;;-6.46;100.00;99828.44;10593339;27;20418;-87
2022/12/13 06:19:50;;;;;;;28.00;11.23;;;-3.70;99.90;;;-6.50;100.00;99832.88;10586506;27;20055;-86
2022/12/13 06:24:53;;;;;;;26.07;9.13;;;-3.70;99.90;;;-6.53;100.00;99842.53;10595403;27;20071;-86
2022/12/13 06:29:58;;;;;;;20.03;7.87;;;-3.80;99.90;;;-6.63;100.00;99834.34;10593987;27;20056;-86
2022/12/13 06:35:06;;;;;;;19.90;7.77;;;-3.80;99.90;;;-6.65;100.00;99845.69;10617545;27;20207;-86
2022/12/13 06:40:30;;;;;;;38.17;11.90;;;-3.80;99.90;;;-6.61;100.00;99865.28;10597368;27;20066;-84
2022/12/13 06:45:37;;;;;;;25.37;9.97;;;-3.90;99.90;;;-6.48;100.00;99859.53;10642474;27;20137;-84
2022/12/13 06:50:39;;;;;;;23.73;8.90;;;-3.80;99.90;;;-6.23;100.00;99867.00;10583536;27;20060;-85
2022/12/13 06:55:42;;;;;;;17.20;7.70;;;-3.70;99.90;;;-5.94;100.00;99868.25;10593063;27;20063;-85
2022/12/13 07:00:45;;;;;;;21.83;8.53;;;-3.50;99.90;;;-5.76;100.00;99858.72;10594167;27;20071;-84
2022/12/13 07:05:51;;;;;;;16.80;7.20;;;-3.40;99.90;;;-5.64;100.00;99883.19;10570737;27;20994;-85
2022/12/13 07:11:00;;;;;;;18.80;7.40;;;-3.30;99.90;;;-5.65;100.00;99884.94;10596823;27;20150;-85
2022/12/13 07:16:04;;;;;;;18.73;7.73;;;-3.20;99.90;;;-5.62;100.00;99875.38;10594604;27;20518;-86
2022/12/13 07:21:10;;;;;;;25.23;8.90;;;-3.10;99.90;;;-5.62;100.00;99877.94;10598203;27;20140;-86
2022/12/13 07:26:24;;;;;;;29.87;11.20;;;-3.00;99.90;;;-5.48;100.00;99889.31;10619303;27;20063;-85
2022/12/13 07:31:27;;;;;;;27.67;11.17;;;-3.00;99.90;;;-5.09;100.00;99890.03;10582087;27;20108;-86
2022/12/13 07:36:31;;;;;;;28.97;11.83;;;-2.80;99.90;;;-4.42;100.00;99897.78;10588626;27;20578;-84
2022/12/13 07:41:34;;;;;;;24.40;10.47;;;-2.40;99.90;;;-3.79;100.00;99902.19;10589124;27;20063;-87
2022/12/13 07:46:36;;;;;;;21.70;9.87;;;-1.90;99.90;;;-3.34;100.00;99892.75;10609315;27;20086;-88
2022/12/13 07:51:39;;;;;;;21.00;10.17;;;-1.50;99.90;;;-2.88;100.00;99900.47;10592558;27;20573;-85
2022/12/13 07:56:42;;;;;;;21.47;10.17;;;-1.20;99.90;;;-2.40;100.00;99890.66;10588046;27;20431;-85
2022/12/13 08:01:47;;;;;;;24.90;9.40;;;-0.80;99.90;;;-1.95;99.74;99885.25;10579142;27;20062;-83
2022/12/13 08:06:50;;;;;;;16.93;8.07;;;-0.40;99.90;;;-1.51;98.72;99894.59;10611470;27;20395;-84
2022/12/13 08:11:53;;;;;;;19.97;9.50;;;0.00;99.90;;;-0.99;97.71;99899.03;10610215;27;20055;-82
2022/12/13 08:16:56;;;;;;;22.53;10.30;;;0.60;99.90;;;-0.55;96.37;99889.97;10605990;27;20139;-85
2022/12/13 08:21:59;;;;;;;17.73;8.53;;;1.10;99.90;;;-0.21;94.19;99891.09;10604561;27;20059;-84
2022/12/13 08:27:04;;;;;;;14.30;7.67;;;1.50;99.90;;;0.13;92.65;99894.81;10600691;27;20059;-84
2022/12/13 08:32:10;;;;;;;15.60;7.13;;;1.90;99.90;;;0.45;90.78;99905.56;10575597;27;20121;-84
2022/12/13 08:37:13;;;;;;;15.57;7.90;;;2.40;99.90;;;0.70;88.85;99909.00;10569274;27;20087;-81
2022/12/13 08:42:18;;;;;;;19.13;8.90;;;2.70;99.90;;;0.97;87.33;99901.75;10566572;27;20135;-88
2022/12/13 08:47:25;;;;;;;16.33;8.20;;;3.10;99.90;;;0.94;85.01;99893.28;10604671;27;20139;-87
2022/12/13 08:52:30;;;;;;;13.63;7.17;;;3.10;99.90;;;0.38;83.77;99906.13;10587581;27;20051;-86
2022/12/13 08:57:42;;;;;;;;;;;2.70;99.90;;;-0.29;82.79;99904.69;10588333;27;20193;-90
2022/12/13 09:02:45;;;;;;;16.03;7.23;;;2.10;99.90;;;-0.80;83.41;99909.06;10601632;27;19928;-87
2022/12/13 09:07:48;;;;;;;16.77;8.20;;;1.60;99.90;;;-0.99;83.21;99901.63;10591809;27;20063;-87
2022/12/13 09:12:53;;;;;;;14.37;7.83;;;1.40;99.90;;;-0.70;83.73;99912.75;10580434;27;20126;-89
2022/12/13 09:18:04;;;;;;;16.60;8.73;;;1.70;99.90;;;-0.59;83.27;99891.16;10592706;27;20062;-87
2022/12/13 09:23:09;;;;;;;16.17;7.80;;;2.00;99.90;;;-0.70;83.12;99899.69;10596685;27;20131;-87
2022/12/13 09:28:28;;;;;;;12.20;6.10;;;1.90;99.90;;;-0.88;82.37;99895.72;10599051;27;20499;-89
2022/12/13 09:33:30;;;;;;;15.97;6.73;;;1.60;99.90;;;-1.09;82.34;99880.53;10568090;27;20066;-90
2022/12/13 09:38:43;;;;;;;15.13;7.50;;;1.50;99.90;;;-1.22;82.66;99891.88;10569131;27;20067;-89
2022/12/13 09:44:03;;;;;;;14.03;7.10;;;1.30;99.90;;;-1.32;82.53;99881.22;10634778;27;20154;-89
2022/12/13 09:49:34;;;;;;;17.77;6.97;;;1.10;99.90;;;-1.44;82.98;99882.00;10582757;27;20062;-89
2022/12/13 09:54:38;;;;;;;14.90;6.50;;;1.00;99.90;;;-1.44;82.66;99879.41;10591849;27;20427;-89
2022/12/13 09:59:51;;;;;;;11.63;5.47;;;1.00;99.90;;;-1.46;82.96;99879.50;10593263;27;20056;-89
2022/12/13 10:05:10;;;;;;;12.77;6.77;;;0.90;99.90;;;-1.48;82.72;99886.59;10622893;27;20132;-89
2022/12/13 10:10:26;;;;;;;15.00;5.87;;;0.90;99.90;;;-1.49;82.55;99879.72;10613895;27;20056;-89
2022/12/13 10:15:31;;;;;;;13.93;6.20;;;1.00;99.90;;;-1.44;83.06;99872.44;10614552;27;20105;-89
2022/12/13 10:20:35;;;;;;;14.20;7.20;;;1.00;99.90;;;-1.42;81.40;99862.75;10613730;27;20105;-93
2022/12/13 10:25:58;;;;;;;13.77;6.87;;;1.00;99.90;;;-1.40;81.57;99868.69;10582865;27;20083;-93
2022/12/13 10:31:06;;;;;;;12.13;5.67;;;1.10;99.90;;;-1.38;81.30;99859.00;10605739;27;20062;-92
2022/12/13 10:36:34;;;;;;;14.80;7.27;;;1.10;99.90;;;-1.35;81.35;99850.97;10613210;27;20078;-92
2022/12/13 10:41:38;;;;;;;11.67;5.47;;;1.20;99.90;;;-1.25;81.20;99858.22;10611977;27;20511;-91
2022/12/13 10:47:04;;;;;;;14.73;5.37;;;1.20;99.90;;;-1.12;81.22;99846.03;10587212;27;20059;-91
2022/12/13 10:52:30;;;;;;;12.60;5.80;;;1.50;99.90;;;-0.72;80.14;99843.31;10623883;27;20056;-91
2022/12/13 10:57:34;;;;;;;9.20;4.13;;;2.00;99.90;;;-0.61;78.80;99841.63;10585455;27;20051;-90
2022/12/13 11:02:40;;;;;;;6.53;3.43;;;2.10;99.90;;;-0.65;78.19;99827.16;10596894;27;20067;-90
2022/12/13 11:07:43;;;;;;;6.83;4.00;;;2.10;99.90;;;-0.61;76.93;99831.19;10574887;28;20052;-90
2022/12/13 11:12:48;;;;;;;8.63;4.50;;;2.00;99.90;;;-0.71;76.10;99813.69;10532661;28;20628;-91
2022/12/13 11:17:57;;;;;;;7.97;4.17;;;1.90;99.90;;;-0.77;76.11;99817.56;10567460;27;20060;-91
2022/12/13 11:23:11;;;;;;;10.57;4.53;;;1.90;99.90;;;-0.74;76.67;99827.78;10570643;28;20060;-91
2022/12/13 11:28:47;;;;;;;14.17;4.30;;;1.80;99.90;;;-0.73;75.65;99812.94;10591286;27;20087;-87
2022/12/13 11:34:12;;;;;;;8.43;4.10;;;1.80;99.90;;;-0.75;75.11;99818.28;10578574;27;20068;-88
2022/12/13 11:39:29;;;;;;;6.60;3.40;;;1.80;99.90;;;-0.76;74.94;99810.56;10544142;28;20056;-88
2022/12/13 11:45:13;;;;;;;6.93;3.87;;;1.80;99.90;;;-0.76;74.26;99811.41;10555516;27;20131;-88
2022/12/13 11:50:37;;;;;;;10.03;4.73;;;1.80;99.90;;;-0.75;73.93;99814.84;10580199;28;20064;-87
2022/12/13 11:55:48;;;;;;;6.23;3.70;;;1.80;99.90;;;-0.77;74.04;99806.28;10587473;27;20149;-87
2022/12/13 12:01:09;;;;;;;6.20;3.27;;;1.80;99.90;;;-0.78;73.71;99809.81;10615528;27;20064;-87
2022/12/13 12:06:26;;;;;;;6.33;3.10;;;1.80;99.90;;;-0.76;73.50;99813.19;10578421;27;20106;-88
2022/12/13 12:11:40;;;;;;;7.07;3.17;;;1.80;99.90;;;-0.76;72.68;99813.19;10605272;27;20054;-88
2022/12/13 12:16:50;;;;;;;7.33;3.23;;;1.80;99.90;;;-0.76;72.24;99810.56;10593496;27;20058;-88
2022/12/13 12:22:17;;;;;;;7.40;3.73;;;1.80;99.70;;;-0.76;71.45;99813.19;10600536;27;20108;-88
2022/12/13 12:27:53;;;;;;;6.40;3.67;;;1.70;99.90;;;-0.81;71.52;99801.28;10590687;27;20559;-89
2022/12/13 12:33:03;;;;;;;8.83;3.63;;;1.70;99.80;;;-0.81;71.83;99805.66;10550665;27;20062;-88
2022/12/13 12:38:57;;;;;;;7.07;3.50;;;1.70;99.80;;;-0.78;71.09;99807.22;10616456;27;20090;-89
2022/12/13 12:44:14;;;;;;;7.63;3.60;;;1.70;99.90;;;-0.82;71.27;99799.59;10588508;27;20504;-89
2022/12/13 12:49:31;;;;;;;10.47;5.10;;;1.70;99.60;;;-0.83;71.42;99799.72;10612798;27;20056;-87
2022/12/13 12:55:12;;;;;;;8.63;3.83;;;1.70;99.90;;;-0.85;70.63;99799.81;10600469;27;20063;-88
2022/12/13 13:00:21;;;;;;;9.77;4.00;;;1.70;99.60;;;-0.85;70.64;99801.56;10566585;28;20508;-87
2022/12/13 13:05:48;;;;;;;8.27;3.73;;;1.70;99.40;;;-0.86;70.86;99810.34;10608685;27;20147;-87
2022/12/13 13:10:52;;;;;;;7.60;3.73;;;1.70;99.50;;;-0.90;70.40;99812.34;10585587;27;20491;-85
2022/12/13 13:16:04;;;;;;;9.63;4.33;;;1.60;99.30;;;-0.94;70.66;99816.09;10593669;27;20082;-85
2022/12/13 13:21:23;;;;;;;12.00;4.87;;;1.60;99.00;;;-0.94;70.44;99820.47;10590136;27;20052;-85
2022/12/13 13:26:28;;;;;;;10.53;4.27;;;1.60;99.00;;;-0.95;70.23;99826.63;10596075;27;20056;-90
2022/12/13 13:32:04;;;;;;;9.37;4.37;;;1.50;98.90;;;-0.99;70.46;99828.59;10579029;27;20058;-87
2022/12/13 13:37:19;;;;;;;9.10;4.83;;;1.50;99.00;;;-1.04;70.88;99833.28;10593283;27;20148;-85
2022/12/13 13:42:29;;;;;;;11.37;5.30;;;1.40;98.90;;;-1.08;71.48;99848.34;10625635;27;20052;-87
2022/12/13 13:47:39;;;;;;;13.17;5.63;;;1.40;99.20;;;-1.15;71.80;99838.38;10582134;27;20082;-84
2022/12/13 13:52:56;;;;;;;7.43;4.40;;;1.40;99.40;;;-1.22;72.48;99842.34;10568441;27;20055;-87
2022/12/13 13:58:56;;;;;;;12.90;7.03;;;1.30;99.50;;;-1.30;72.64;99839.41;10607095;27;20400;-88
2022/12/13 14:04:21;;;;;;;9.77;6.40;;;1.20;99.60;;;-1.41;72.75;99840.94;10586249;27;20097;-88
2022/12/13 14:10:19;;;;;;;10.70;5.80;;;1.10;99.70;;;-1.53;73.07;99838.31;10618101;27;20055;-88
2022/12/13 14:15:57;;;;;;;12.33;6.27;;;1.00;99.80;;;-1.62;73.92;99852.75;10577826;27;20056;-92
2022/12/13 14:21:25;;;;;;;22.17;7.13;;;0.80;99.90;;;-1.75;74.60;99844.06;10578284;27;20064;-90
2022/12/13 14:26:58;;;;;;;23.07;8.47;;;0.70;99.90;;;-1.92;75.43;99846.00;10628770;27;20063;-94
2022/12/13 14:32:30;;;;;;;24.37;8.90;;;0.50;99.90;;;-2.03;76.02;99858.84;10607488;27;20056;-86
2022/12/13 14:37:36;;;;;;;23.97;8.30;;;0.40;99.90;;;-2.17;77.10;99856.25;10632946;27;20059;-86
2022/12/13 14:42:41;;;;;;;17.77;7.43;;;0.20;99.90;;;-2.36;77.99;99838.34;10598447;27;20079;-84
2022/12/13 14:47:52;;;;;;;32.90;10.70;;;0.10;99.90;;;-2.46;78.46;99843.31;10581663;27;20059;-87
2022/12/13 14:52:56;;;;;;;33.67;10.27;;;-0.10;99.90;;;-2.60;78.76;99843.28;10598733;27;20090;-88
2022/12/13 14:58:15;;;;;;;65.93;21.47;;;-0.20;99.90;;;-2.72;78.77;99841.44;10589242;27;20135;-89
2022/12/13 15:03:25;;;;;;;47.17;15.73;;;-0.40;99.90;;;-2.91;79.43;99854.69;10568719;27;20066;-87
2022/12/13 15:08:36;;;;;;;28.10;10.50;;;-0.60;99.90;;;-3.11;79.90;99860.25;10594980;27;20056;-88
2022/12/13 15:13:51;;;;;;;25.95;11.13;;;-0.70;99.90;;;-3.35;80.47;99857.31;10612155;27;20277;-87
2022/12/13 15:19:15;;;;;;;32.63;11.00;;;-0.80;99.90;;;-3.51;81.15;99870.31;10595824;27;20059;-84
2022/12/13 15:24:45;;;;;;;26.60;12.80;;;-0.90;99.90;;;-3.69;81.77;99869.59;10591574;27;20059;-86
2022/12/13 15:29:50;;;;;;;20.30;9.27;;;-1.10;99.90;;;-3.87;82.33;99875.81;10617015;27;20138;-88
2022/12/13 15:34:54;;;;;;;37.83;14.63;;;-1.20;99.90;;;-3.95;82.60;99888.38;10627946;27;20078;-91
2022/12/13 15:40:07;;;;;;;40.90;16.10;;;-1.30;99.90;;;-4.07;83.10;99887.28;10611615;27;20062;-92
2022/12/13 15:45:24;;;;;;;64.07;20.23;;;-1.40;99.90;;;-4.16;83.78;99892.97;10593900;27;20055;-86
2022/12/13 15:50:38;;;;;;;75.13;25.03;;;-1.50;99.90;;;-4.27;84.11;99896.13;10604127;27;20055;-88
2022/12/13 15:55:50;;;;;;;103.93;29.23;;;-1.60;99.90;;;-4.39;84.57;99902.78;10602958;27;20059;-90
2022/12/13 16:00:53;;;;;;;117.13;29.50;;;-1.70;99.90;;;-4.50;85.06;99904.25;10610444;27;20056;-91
2022/12/13 16:05:56;;;;;;;68.83;20.40;;;-1.80;99.90;;;-4.62;85.62;99908.34;10617889;27;20121;-90
2022/12/13 16:11:00;;;;;;;39.37;14.20;;;-1.90;99.90;;;-4.66;86.08;99906.84;10611020;27;20059;-96
2022/12/13 16:16:27;;;;;;;22.70;9.43;;;-2.00;99.90;;;-4.64;86.63;99921.38;10614732;27;20063;-93
2022/12/13 16:21:30;;;;;;;34.37;11.23;;;-2.00;99.90;;;-4.70;86.46;99921.69;10584251;27;20079;-93
2022/12/13 16:26:33;;;;;;;30.80;11.47;;;-2.00;99.90;;;-4.83;86.48;99912.88;10581498;27;20071;-88
2022/12/13 16:31:36;;;;;;;48.90;16.70;;;-2.10;99.90;;;-4.96;86.90;99909.22;10624604;27;20423;-89
2022/12/13 16:36:39;;;;;;;43.53;12.93;;;-2.20;99.90;;;-5.04;87.24;99919.13;10576452;27;20087;-89
2022/12/13 16:41:46;;;;;;;20.70;8.93;;;-2.30;99.90;;;-5.14;87.76;99913.56;10599393;27;20450;-87
2022/12/13 16:46:49;;;;;;;147.80;44.33;;;-2.40;99.90;;;-5.29;87.83;99897.00;10555011;27;20056;-87
2022/12/13 16:52:12;;;;;;;58.50;18.23;;;-2.50;99.90;;;-5.37;88.13;99912.09;10577885;27;20530;-88
2022/12/13 16:57:15;;;;;;;55.77;18.80;;;-2.60;99.90;;;-5.42;88.66;99919.25;10587229;27;20048;-90
2022/12/13 17:02:19;;;;;;;44.70;12.00;;;-2.60;99.90;;;-5.50;89.22;99909.28;10568384;27;20063;-87
2022/12/13 17:07:22;;;;;;;29.10;9.93;;;-2.70;99.90;;;-5.58;89.64;99900.16;10617308;27;20073;-88
2022/12/13 17:12:25;;;;;;;32.83;10.90;;;-2.80;99.90;;;-5.62;89.29;99902.09;10591859;27;20056;-89
2022/12/13 17:17:28;;;;;;;62.37;16.83;;;-2.80;99.90;;;-5.64;89.89;99919.41;10626750;27;20082;-89
2022/12/13 17:22:31;;;;;;;158.63;44.70;;;-2.80;99.90;;;-5.67;90.45;99919.59;10591884;27;20066;-89
2022/12/13 17:27:35;;;;;;;54.93;18.47;;;-2.90;99.90;;;-5.74;90.49;99924.22;10556733;28;20048;-89
2022/12/13 17:32:37;;;;;;;36.23;13.80;;;-2.90;99.90;;;-5.77;91.34;99933.84;10560275;27;20470;-88
2022/12/13 17:37:42;;;;;;;40.37;13.97;;;-3.00;99.90;;;-5.88;91.28;99931.75;10604184;27;20055;-89
2022/12/13 17:42:49;;;;;;;25.00;9.77;;;-3.10;99.90;;;-5.88;91.68;99946.44;10607633;27;20309;-88
2022/12/13 17:47:52;;;;;;;31.03;9.93;;;-3.10;99.90;;;-5.98;91.87;99938.31;10561474;28;20079;-88
2022/12/13 17:52:55;;;;;;;28.27;10.87;;;-3.20;99.90;;;-5.96;91.99;99936.50;10567793;27;20056;-88
2022/12/13 17:57:58;;;;;;;38.23;11.13;;;-3.10;99.90;;;-5.99;92.12;99931.47;10608559;27;20427;-88
2022/12/13 18:03:06;;;;;;;113.53;22.23;;;-3.20;99.90;;;-6.01;92.32;99930.69;10606007;27;20146;-88
2022/12/13 18:08:09;;;;;;;20.23;8.43;;;-3.20;99.90;;;-6.07;92.73;99926.63;10555762;28;20063;-89
2022/12/13 18:13:12;;;;;;;29.20;10.33;;;-3.30;99.90;;;-6.09;92.97;99936.22;10571981;28;20060;-88
2022/12/13 18:18:15;;;;;;;29.60;10.87;;;-3.30;99.90;;;-6.16;92.77;99939.16;10586096;27;20522;-87
2022/12/13 18:23:18;;;;;;;47.90;14.80;;;-3.40;99.90;;;-6.28;92.83;99931.03;10565348;27;20060;-88
2022/12/13 18:28:21;;;;;;;34.20;10.50;;;-3.50;99.90;;;-6.39;93.02;99930.66;10565231;27;20175;-88
2022/12/13 18:33:24;;;;;;;54.40;16.43;;;-3.50;99.90;;;-6.45;93.24;99941.28;10566275;27;20067;-88
2022/12/13 18:38:28;;;;;;;51.77;15.50;;;-3.60;99.90;;;-6.54;93.23;99941.66;10570130;28;20056;-85
2022/12/13 18:43:38;;;;;;;45.97;16.17;;;-3.70;99.90;;;-6.57;93.51;99941.81;10586736;27;20066;-84
2022/12/13 18:48:42;;;;;;;86.00;20.33;;;-3.70;99.90;;;-6.61;93.97;99950.59;10572356;27;20083;-84
2022/12/13 18:53:45;;;;;;;61.73;16.63;;;-3.70;99.90;;;-6.66;94.05;99943.03;10549227;27;20048;-85
2022/12/13 18:58:49;;;;;;;110.03;23.63;;;-3.80;99.90;;;-6.69;94.31;99932.81;10594985;27;20546;-90
2022/12/13 19:03:53;;;;;;;67.73;20.67;;;-3.80;99.90;;;-6.72;94.47;99942.44;10587712;28;20063;-88
2022/12/13 19:08:57;;;;;;;41.40;12.77;;;-3.90;99.90;;;-6.80;94.45;99935.88;10576363;28;20059;-88
2022/12/13 19:14:01;;;;;;;204.03;36.57;;;-3.90;99.90;;;-6.86;94.61;99941.28;10553992;27;20067;-89
2022/12/13 19:19:05;;;;;;;82.03;18.17;;;-4.00;99.90;;;-6.95;94.98;99936.53;10565374;27;20056;-87
2022/12/13 19:24:12;;;;;;;66.30;15.23;;;-4.10;99.90;;;-7.02;94.84;99943.69;10573298;27;20075;-88
2022/12/13 19:29:15;;;;;;;233.27;40.70;;;-4.10;99.90;;;-7.07;94.67;99943.03;10545004;27;20060;-87
2022/12/13 19:34:18;;;;;;;43.97;12.03;;;-4.20;99.90;;;-7.13;95.31;99950.19;10560620;27;20064;-88
2022/12/13 19:39:22;;;;;;;28.40;10.33;;;-4.30;99.90;;;-7.20;95.14;99938.41;10590250;27;20439;-88
2022/12/13 19:44:25;;;;;;;62.13;15.97;;;-4.30;99.90;;;-7.26;95.20;99939.50;10600673;27;20099;-86
2022/12/13 19:49:29;;;;;;;29.83;8.97;;;-4.40;99.90;;;-7.32;95.68;99950.91;10580769;27;20063;-87
2022/12/13 19:54:31;;;;;;;32.53;12.17;;;-4.40;99.90;;;-7.38;95.90;99956.31;10569636;27;20087;-90
2022/12/13 19:59:34;;;;;;;28.20;10.70;;;-4.50;99.90;;;-7.43;95.67;99950.53;10543455;27;20059;-85
2022/12/13 20:04:37;;;;;;;36.27;10.70;;;-4.50;99.90;;;-7.48;96.33;99952.44;10598861;27;20055;-85
2022/12/13 20:09:40;;;;;;;37.90;11.97;;;-4.60;99.90;;;-7.53;96.22;99954.38;10591526;27;20056;-85
2022/12/13 20:14:43;;;;;;;35.10;13.13;;;-4.60;99.90;;;-7.60;96.42;99942.59;10567666;27;20055;-85
2022/12/13 20:19:46;;;;;;;61.27;16.93;;;-4.70;99.90;;;-7.62;96.36;99932.31;10605995;27;20060;-85
2022/12/13 20:24:49;;;;;;;43.50;12.63;;;-4.70;99.90;;;-7.63;97.05;99958.19;10601089;27;20063;-86
2022/12/13 20:29:54;;;;;;;52.43;16.53;;;-4.70;99.90;;;-7.67;96.82;99954.06;10606264;27;20063;-85
2022/12/13 20:34:57;;;;;;;37.87;11.50;;;-4.80;99.90;;;-7.70;97.01;99961.91;10580834;27;20062;-85
2022/12/13 20:40:00;;;;;;;26.30;9.20;;;-4.80;99.90;;;-7.71;97.32;99955.06;10582719;27;20066;-84
2022/12/13 20:45:04;;;;;;;36.23;13.13;;;-4.80;99.90;;;-7.74;97.48;99956.00;10583277;27;20119;-86
2022/12/13 20:50:07;;;;;;;34.13;10.93;;;-4.90;99.90;;;-7.72;97.53;99961.16;10581499;27;20058;-87
2022/12/13 20:55:12;;;;;;;26.47;10.10;;;-4.90;99.90;;;-7.76;97.63;99965.56;10588484;27;20059;-87
2022/12/13 21:00:16;;;;;;;50.47;15.17;;;-4.90;99.90;;;-7.75;98.03;99963.81;10561323;27;20055;-87
2022/12/13 21:05:20;;;;;;;43.30;13.80;;;-4.90;99.90;;;-7.78;98.33;99962.22;10612889;27;20087;-86
2022/12/13 21:10:23;;;;;;;51.47;15.33;;;-4.90;99.90;;;-7.82;98.06;99968.38;10600850;27;20569;-86
2022/12/13 21:15:26;;;;;;;47.13;14.87;;;-4.90;99.90;;;-7.86;98.05;99953.91;10606779;27;20090;-86
2022/12/13 21:20:29;;;;;;;45.37;13.73;;;-5.00;99.90;;;-7.92;98.32;99936.91;10594627;27;20087;-86